Terminal Aerodrome Forecast
Issued by NWS New Orleans/Baton Rouge, LA

Home | Current Version | Previous Version | Text Only | Print | Product List | Glossary On
Versions: 1 2 3 4 5 6 7 8 9 10 11 12 13 14 15 16 17 18 19 20 21 22 23 24 25 26 27
586
FTUS44 KLIX 270906 AAA
TAFBTR
TAF AMD
KBTR 270906Z 2709/2806 VRB03KT 5SM BR SCT015
      TEMPO 2710/2713 3SM BR BKN012
     FM271500 18011KT P6SM SCT030 PROB30 2718/2720 4SM -TSRA
      OVC025CB
     FM272300 20011KT P6SM SCT100=

USA.gov is the U.S. government's official web portal to all federal, state and local government web resources and services.